Woodstock, Illinois
Current Conditions -  °F | °C
As of 11:35 PM on Wednesday 17 Dec 2014 (Local Time) from KBUU Reporting Station
Clear Clear  
Wind Chill: 10°   Ceiling: Unl
Heat Index: 17°   Visibility: 10mi
Dew Point: 13°   Wind: 5mph
Humidity: 84%   Direction: 280°W
Pressure: 30.27"   Gusts: NA
Location:  42.31°N, 88.45°W
Report Text: KBUU 180535Z AUTO 28004KT 10SM CLR M08/M10 A3027 RMK AO2 T10831105
Loading
Personal Weather Stations






























Interactive Weather Map New forecast layout! Learn more

10-Day Weather Forecast

Advertisements
Track Severe Weather on mobile